sensor_id;sensor_type;location;lat;lon;timestamp;P1;durP1;ratioP1;P2;durP2;ratioP2
74593;SDS011;63097;51.872;4.460;2023-03-09T00:00:31;25.38;;;11.85;;
74593;SDS011;63097;51.872;4.460;2023-03-09T00:02:57;29.88;;;14.40;;
74593;SDS011;63097;51.872;4.460;2023-03-09T00:05:22;28.17;;;14.10;;
74593;SDS011;63097;51.872;4.460;2023-03-09T00:07:47;26.92;;;12.15;;
74593;SDS011;63097;51.872;4.460;2023-03-09T00:10:13;23.02;;;12.02;;
74593;SDS011;63097;51.872;4.460;2023-03-09T00:12:40;30.42;;;12.65;;
74593;SDS011;63097;51.872;4.460;2023-03-09T00:15:05;25.88;;;8.95;;
74593;SDS011;63097;51.872;4.460;2023-03-09T00:17:31;28.85;;;13.23;;
74593;SDS011;63097;51.872;4.460;2023-03-09T00:19:56;26.65;;;13.65;;
74593;SDS011;63097;51.872;4.460;2023-03-09T00:22:22;31.25;;;12.32;;
74593;SDS011;63097;51.872;4.460;2023-03-09T00:24:47;25.83;;;11.65;;
74593;SDS011;63097;51.872;4.460;2023-03-09T00:27:12;27.63;;;12.32;;
74593;SDS011;63097;51.872;4.460;2023-03-09T00:29:38;22.90;;;11.73;;
74593;SDS011;63097;51.872;4.460;2023-03-09T00:32:03;25.80;;;12.52;;
74593;SDS011;63097;51.872;4.460;2023-03-09T00:34:29;26.67;;;13.20;;
74593;SDS011;63097;51.872;4.460;2023-03-09T00:36:54;24.33;;;12.35;;
74593;SDS011;63097;51.872;4.460;2023-03-09T00:39:20;28.30;;;13.30;;
74593;SDS011;63097;51.872;4.460;2023-03-09T00:41:45;22.40;;;11.82;;
74593;SDS011;63097;51.872;4.460;2023-03-09T00:44:11;28.75;;;13.13;;
74593;SDS011;63097;51.872;4.460;2023-03-09T00:46:37;24.85;;;12.68;;
74593;SDS011;63097;51.872;4.460;2023-03-09T00:49:03;26.77;;;13.43;;
74593;SDS011;63097;51.872;4.460;2023-03-09T00:51:29;23.42;;;11.98;;
74593;SDS011;63097;51.872;4.460;2023-03-09T00:53:55;20.05;;;11.23;;
74593;SDS011;63097;51.872;4.460;2023-03-09T00:56:22;25.10;;;12.52;;
74593;SDS011;63097;51.872;4.460;2023-03-09T00:58:49;23.90;;;12.80;;
74593;SDS011;63097;51.872;4.460;2023-03-09T01:01:15;21.42;;;11.15;;
74593;SDS011;63097;51.872;4.460;2023-03-09T01:03:41;25.98;;;12.80;;
74593;SDS011;63097;51.872;4.460;2023-03-09T01:06:07;21.25;;;11.15;;
74593;SDS011;63097;51.872;4.460;2023-03-09T01:08:32;25.08;;;13.10;;
74593;SDS011;63097;51.872;4.460;2023-03-09T01:10:59;24.10;;;12.43;;
74593;SDS011;63097;51.872;4.460;2023-03-09T01:13:24;24.88;;;12.02;;
74593;SDS011;63097;51.872;4.460;2023-03-09T01:15:50;25.30;;;13.48;;
74593;SDS011;63097;51.872;4.460;2023-03-09T01:18:15;21.33;;;11.30;;
74593;SDS011;63097;51.872;4.460;2023-03-09T01:20:41;23.08;;;12.10;;
74593;SDS011;63097;51.872;4.460;2023-03-09T01:23:06;24.20;;;12.32;;
74593;SDS011;63097;51.872;4.460;2023-03-09T01:25:32;27.60;;;12.43;;
74593;SDS011;63097;51.872;4.460;2023-03-09T01:27:57;18.08;;;9.73;;
74593;SDS011;63097;51.872;4.460;2023-03-09T01:30:23;20.77;;;10.90;;
74593;SDS011;63097;51.872;4.460;2023-03-09T01:32:48;20.85;;;10.48;;
74593;SDS011;63097;51.872;4.460;2023-03-09T01:35:14;24.20;;;11.10;;
74593;SDS011;63097;51.872;4.460;2023-03-09T01:37:39;26.98;;;13.23;;
74593;SDS011;63097;51.872;4.460;2023-03-09T01:40:05;18.25;;;9.65;;
74593;SDS011;63097;51.872;4.460;2023-03-09T01:42:31;22.13;;;12.07;;
74593;SDS011;63097;51.872;4.460;2023-03-09T01:48:11;21.13;;;10.57;;
74593;SDS011;63097;51.872;4.460;2023-03-09T01:50:36;20.70;;;10.60;;
74593;SDS011;63097;51.872;4.460;2023-03-09T01:53:04;24.83;;;12.65;;
74593;SDS011;63097;51.872;4.460;2023-03-09T01:55:37;22.25;;;11.82;;
74593;SDS011;63097;51.872;4.460;2023-03-09T01:58:07;24.50;;;11.52;;
74593;SDS011;63097;51.872;4.460;2023-03-09T02:00:38;26.42;;;11.88;;
74593;SDS011;63097;51.872;4.460;2023-03-09T02:03:09;23.98;;;11.85;;
74593;SDS011;63097;51.872;4.460;2023-03-09T02:05:42;22.45;;;11.43;;
74593;SDS011;63097;51.872;4.460;2023-03-09T02:08:11;25.00;;;12.40;;
74593;SDS011;63097;51.872;4.460;2023-03-09T02:10:38;22.85;;;12.25;;
74593;SDS011;63097;51.872;4.460;2023-03-09T02:13:10;22.30;;;11.98;;
74593;SDS011;63097;51.872;4.460;2023-03-09T02:15:38;26.05;;;11.88;;
74593;SDS011;63097;51.872;4.460;2023-03-09T02:18:04;23.13;;;11.57;;
74593;SDS011;63097;51.872;4.460;2023-03-09T02:25:59;26.48;;;12.55;;
74593;SDS011;63097;51.872;4.460;2023-03-09T02:28:43;22.92;;;11.63;;
74593;SDS011;63097;51.872;4.460;2023-03-09T02:31:08;24.20;;;11.98;;
74593;SDS011;63097;51.872;4.460;2023-03-09T02:33:35;22.55;;;12.02;;
74593;SDS011;63097;51.872;4.460;2023-03-09T02:36:01;22.13;;;12.18;;
74593;SDS011;63097;51.872;4.460;2023-03-09T02:38:26;23.13;;;11.88;;
74593;SDS011;63097;51.872;4.460;2023-03-09T02:40:52;25.70;;;11.05;;
74593;SDS011;63097;51.872;4.460;2023-03-09T02:43:22;21.10;;;11.38;;
74593;SDS011;63097;51.872;4.460;2023-03-09T02:45:52;22.35;;;10.88;;
74593;SDS011;63097;51.872;4.460;2023-03-09T02:48:18;19.52;;;9.98;;
74593;SDS011;63097;51.872;4.460;2023-03-09T02:50:43;20.80;;;10.15;;
74593;SDS011;63097;51.872;4.460;2023-03-09T02:53:08;17.15;;;9.02;;
74593;SDS011;63097;51.872;4.460;2023-03-09T02:55:34;19.95;;;9.68;;
74593;SDS011;63097;51.872;4.460;2023-03-09T02:57:59;20.98;;;10.63;;
74593;SDS011;63097;51.872;4.460;2023-03-09T03:00:24;19.20;;;10.80;;
74593;SDS011;63097;51.872;4.460;2023-03-09T03:02:50;19.33;;;9.70;;
74593;SDS011;63097;51.872;4.460;2023-03-09T03:05:15;17.65;;;9.45;;
74593;SDS011;63097;51.872;4.460;2023-03-09T03:07:40;24.92;;;11.43;;
74593;SDS011;63097;51.872;4.460;2023-03-09T03:10:06;17.73;;;8.30;;
74593;SDS011;63097;51.872;4.460;2023-03-09T03:12:31;20.50;;;10.63;;
74593;SDS011;63097;51.872;4.460;2023-03-09T03:14:57;19.33;;;10.00;;
74593;SDS011;63097;51.872;4.460;2023-03-09T03:17:22;18.90;;;10.02;;
74593;SDS011;63097;51.872;4.460;2023-03-09T03:19:48;19.02;;;10.07;;
74593;SDS011;63097;51.872;4.460;2023-03-09T03:22:13;20.70;;;11.35;;
74593;SDS011;63097;51.872;4.460;2023-03-09T03:24:38;19.10;;;10.10;;
74593;SDS011;63097;51.872;4.460;2023-03-09T03:27:05;18.70;;;8.98;;
74593;SDS011;63097;51.872;4.460;2023-03-09T03:29:30;18.40;;;9.38;;
74593;SDS011;63097;51.872;4.460;2023-03-09T03:31:56;18.98;;;9.93;;
74593;SDS011;63097;51.872;4.460;2023-03-09T03:34:21;16.83;;;9.50;;
74593;SDS011;63097;51.872;4.460;2023-03-09T03:36:46;20.17;;;9.90;;
74593;SDS011;63097;51.872;4.460;2023-03-09T03:39:12;18.15;;;10.35;;
74593;SDS011;63097;51.872;4.460;2023-03-09T03:41:37;21.58;;;9.88;;
74593;SDS011;63097;51.872;4.460;2023-03-09T03:44:02;18.13;;;9.90;;
74593;SDS011;63097;51.872;4.460;2023-03-09T03:46:28;19.38;;;10.68;;
74593;SDS011;63097;51.872;4.460;2023-03-09T03:48:53;19.27;;;10.23;;
74593;SDS011;63097;51.872;4.460;2023-03-09T03:51:18;20.15;;;10.15;;
74593;SDS011;63097;51.872;4.460;2023-03-09T03:53:44;19.27;;;9.85;;
74593;SDS011;63097;51.872;4.460;2023-03-09T03:56:10;23.95;;;10.23;;
74593;SDS011;63097;51.872;4.460;2023-03-09T03:58:35;18.95;;;9.90;;
74593;SDS011;63097;51.872;4.460;2023-03-09T04:01:00;18.10;;;9.90;;
74593;SDS011;63097;51.872;4.460;2023-03-09T04:03:26;21.48;;;10.60;;
74593;SDS011;63097;51.872;4.460;2023-03-09T04:05:51;18.58;;;9.65;;
74593;SDS011;63097;51.872;4.460;2023-03-09T04:08:16;19.08;;;10.43;;
74593;SDS011;63097;51.872;4.460;2023-03-09T04:10:42;20.13;;;9.85;;
74593;SDS011;63097;51.872;4.460;2023-03-09T04:13:07;17.73;;;9.48;;
74593;SDS011;63097;51.872;4.460;2023-03-09T04:15:33;21.27;;;9.15;;
74593;SDS011;63097;51.872;4.460;2023-03-09T04:17:59;18.95;;;9.15;;
74593;SDS011;63097;51.872;4.460;2023-03-09T04:20:25;21.23;;;10.88;;
74593;SDS011;63097;51.872;4.460;2023-03-09T04:22:50;22.08;;;10.35;;
74593;SDS011;63097;51.872;4.460;2023-03-09T04:25:16;22.52;;;9.35;;
74593;SDS011;63097;51.872;4.460;2023-03-09T04:27:42;18.83;;;10.25;;
74593;SDS011;63097;51.872;4.460;2023-03-09T04:30:07;19.70;;;10.00;;
74593;SDS011;63097;51.872;4.460;2023-03-09T04:32:34;21.70;;;10.68;;
74593;SDS011;63097;51.872;4.460;2023-03-09T04:34:59;25.55;;;11.75;;
74593;SDS011;63097;51.872;4.460;2023-03-09T04:37:25;17.13;;;9.70;;
74593;SDS011;63097;51.872;4.460;2023-03-09T04:39:50;20.05;;;10.13;;
74593;SDS011;63097;51.872;4.460;2023-03-09T04:42:15;17.17;;;9.30;;
74593;SDS011;63097;51.872;4.460;2023-03-09T04:44:41;18.73;;;10.20;;
74593;SDS011;63097;51.872;4.460;2023-03-09T04:47:06;21.67;;;10.90;;
74593;SDS011;63097;51.872;4.460;2023-03-09T04:49:34;19.83;;;10.63;;
74593;SDS011;63097;51.872;4.460;2023-03-09T04:52:00;19.45;;;9.48;;
74593;SDS011;63097;51.872;4.460;2023-03-09T04:54:25;20.02;;;9.85;;
74593;SDS011;63097;51.872;4.460;2023-03-09T04:56:50;19.17;;;9.90;;
74593;SDS011;63097;51.872;4.460;2023-03-09T04:59:16;21.05;;;10.85;;
74593;SDS011;63097;51.872;4.460;2023-03-09T05:01:41;19.50;;;10.48;;
74593;SDS011;63097;51.872;4.460;2023-03-09T05:04:08;25.55;;;11.13;;
74593;SDS011;63097;51.872;4.460;2023-03-09T05:06:34;24.17;;;10.95;;
74593;SDS011;63097;51.872;4.460;2023-03-09T05:08:59;24.58;;;11.13;;
74593;SDS011;63097;51.872;4.460;2023-03-09T05:11:24;20.02;;;10.05;;
74593;SDS011;63097;51.872;4.460;2023-03-09T05:13:50;26.13;;;10.98;;
74593;SDS011;63097;51.872;4.460;2023-03-09T05:16:15;21.67;;;10.45;;
74593;SDS011;63097;51.872;4.460;2023-03-09T05:18:40;18.98;;;10.15;;
74593;SDS011;63097;51.872;4.460;2023-03-09T05:21:06;23.77;;;11.50;;
74593;SDS011;63097;51.872;4.460;2023-03-09T05:23:33;20.50;;;9.55;;
74593;SDS011;63097;51.872;4.460;2023-03-09T05:26:02;24.95;;;12.00;;
74593;SDS011;63097;51.872;4.460;2023-03-09T05:28:28;20.73;;;10.40;;
74593;SDS011;63097;51.872;4.460;2023-03-09T05:30:53;21.48;;;11.05;;
74593;SDS011;63097;51.872;4.460;2023-03-09T05:33:19;22.23;;;10.60;;
74593;SDS011;63097;51.872;4.460;2023-03-09T05:35:44;22.10;;;10.60;;
74593;SDS011;63097;51.872;4.460;2023-03-09T05:38:09;25.05;;;11.73;;
74593;SDS011;63097;51.872;4.460;2023-03-09T05:40:35;24.00;;;11.30;;
74593;SDS011;63097;51.872;4.460;2023-03-09T05:43:00;25.83;;;10.90;;
74593;SDS011;63097;51.872;4.460;2023-03-09T05:45:27;21.60;;;10.73;;
74593;SDS011;63097;51.872;4.460;2023-03-09T05:47:52;21.42;;;10.45;;
74593;SDS011;63097;51.872;4.460;2023-03-09T05:50:17;22.15;;;11.25;;
74593;SDS011;63097;51.872;4.460;2023-03-09T05:52:43;25.20;;;12.02;;
74593;SDS011;63097;51.872;4.460;2023-03-09T05:55:08;24.73;;;11.23;;
74593;SDS011;63097;51.872;4.460;2023-03-09T05:57:34;24.95;;;12.20;;
74593;SDS011;63097;51.872;4.460;2023-03-09T05:59:59;26.48;;;11.82;;
74593;SDS011;63097;51.872;4.460;2023-03-09T06:02:24;24.90;;;11.07;;
74593;SDS011;63097;51.872;4.460;2023-03-09T06:04:50;26.67;;;12.15;;
74593;SDS011;63097;51.872;4.460;2023-03-09T06:07:16;23.48;;;10.95;;
74593;SDS011;63097;51.872;4.460;2023-03-09T06:09:41;21.95;;;11.50;;
74593;SDS011;63097;51.872;4.460;2023-03-09T06:12:07;19.90;;;11.50;;
74593;SDS011;63097;51.872;4.460;2023-03-09T06:14:32;21.65;;;11.27;;
74593;SDS011;63097;51.872;4.460;2023-03-09T06:16:58;23.33;;;11.48;;
74593;SDS011;63097;51.872;4.460;2023-03-09T06:19:23;24.88;;;11.55;;
74593;SDS011;63097;51.872;4.460;2023-03-09T06:21:48;22.25;;;11.38;;
74593;SDS011;63097;51.872;4.460;2023-03-09T06:24:13;24.15;;;11.65;;
74593;SDS011;63097;51.872;4.460;2023-03-09T06:26:39;26.58;;;11.68;;
74593;SDS011;63097;51.872;4.460;2023-03-09T06:29:04;21.10;;;10.43;;
74593;SDS011;63097;51.872;4.460;2023-03-09T06:31:29;23.52;;;11.57;;
74593;SDS011;63097;51.872;4.460;2023-03-09T06:33:56;24.55;;;11.73;;
74593;SDS011;63097;51.872;4.460;2023-03-09T06:36:22;21.05;;;10.50;;
74593;SDS011;63097;51.872;4.460;2023-03-09T06:38:47;23.35;;;11.27;;
74593;SDS011;63097;51.872;4.460;2023-03-09T06:41:12;23.80;;;11.35;;
74593;SDS011;63097;51.872;4.460;2023-03-09T06:43:38;22.63;;;11.18;;
74593;SDS011;63097;51.872;4.460;2023-03-09T06:46:03;23.00;;;10.95;;
74593;SDS011;63097;51.872;4.460;2023-03-09T06:48:28;22.08;;;10.70;;
74593;SDS011;63097;51.872;4.460;2023-03-09T06:50:54;23.45;;;11.18;;
74593;SDS011;63097;51.872;4.460;2023-03-09T06:53:19;24.40;;;11.43;;
74593;SDS011;63097;51.872;4.460;2023-03-09T06:55:44;23.42;;;11.55;;
74593;SDS011;63097;51.872;4.460;2023-03-09T06:58:10;23.88;;;11.63;;
74593;SDS011;63097;51.872;4.460;2023-03-09T07:00:35;20.35;;;10.98;;
74593;SDS011;63097;51.872;4.460;2023-03-09T07:03:01;24.48;;;11.55;;
74593;SDS011;63097;51.872;4.460;2023-03-09T07:05:26;23.17;;;12.05;;
74593;SDS011;63097;51.872;4.460;2023-03-09T07:07:52;26.30;;;12.35;;
74593;SDS011;63097;51.872;4.460;2023-03-09T07:10:17;23.17;;;11.63;;
74593;SDS011;63097;51.872;4.460;2023-03-09T07:12:42;27.15;;;11.73;;
74593;SDS011;63097;51.872;4.460;2023-03-09T07:15:08;18.45;;;10.05;;
74593;SDS011;63097;51.872;4.460;2023-03-09T07:17:33;21.33;;;10.98;;
74593;SDS011;63097;51.872;4.460;2023-03-09T07:19:58;24.35;;;11.85;;
74593;SDS011;63097;51.872;4.460;2023-03-09T07:22:24;25.60;;;11.77;;
74593;SDS011;63097;51.872;4.460;2023-03-09T07:24:50;24.90;;;12.43;;
74593;SDS011;63097;51.872;4.460;2023-03-09T07:27:15;23.55;;;11.95;;
74593;SDS011;63097;51.872;4.460;2023-03-09T07:29:41;20.45;;;11.32;;
74593;SDS011;63097;51.872;4.460;2023-03-09T07:32:06;21.80;;;11.60;;
74593;SDS011;63097;51.872;4.460;2023-03-09T07:34:32;24.38;;;12.82;;
74593;SDS011;63097;51.872;4.460;2023-03-09T07:36:58;25.65;;;12.10;;
74593;SDS011;63097;51.872;4.460;2023-03-09T07:39:24;23.70;;;11.93;;
74593;SDS011;63097;51.872;4.460;2023-03-09T07:41:50;26.00;;;12.98;;
74593;SDS011;63097;51.872;4.460;2023-03-09T07:44:15;27.70;;;13.10;;
74593;SDS011;63097;51.872;4.460;2023-03-09T07:46:40;20.85;;;11.95;;
74593;SDS011;63097;51.872;4.460;2023-03-09T07:49:06;26.48;;;12.98;;
74593;SDS011;63097;51.872;4.460;2023-03-09T07:51:31;28.77;;;12.93;;
74593;SDS011;63097;51.872;4.460;2023-03-09T07:53:57;25.48;;;12.48;;
74593;SDS011;63097;51.872;4.460;2023-03-09T07:56:22;24.50;;;12.63;;
74593;SDS011;63097;51.872;4.460;2023-03-09T07:58:50;26.40;;;12.95;;
74593;SDS011;63097;51.872;4.460;2023-03-09T08:01:17;24.15;;;13.25;;
74593;SDS011;63097;51.872;4.460;2023-03-09T08:03:43;28.25;;;12.73;;
74593;SDS011;63097;51.872;4.460;2023-03-09T08:06:10;28.45;;;12.63;;
74593;SDS011;63097;51.872;4.460;2023-03-09T08:08:35;29.75;;;13.85;;
74593;SDS011;63097;51.872;4.460;2023-03-09T08:11:01;27.23;;;13.48;;
74593;SDS011;63097;51.872;4.460;2023-03-09T08:13:27;24.75;;;13.23;;
74593;SDS011;63097;51.872;4.460;2023-03-09T08:15:53;28.85;;;13.32;;
74593;SDS011;63097;51.872;4.460;2023-03-09T08:18:18;26.95;;;12.68;;
74593;SDS011;63097;51.872;4.460;2023-03-09T08:20:44;29.33;;;13.07;;
74593;SDS011;63097;51.872;4.460;2023-03-09T08:23:09;26.25;;;12.27;;
74593;SDS011;63097;51.872;4.460;2023-03-09T08:25:35;27.17;;;12.27;;
74593;SDS011;63097;51.872;4.460;2023-03-09T08:28:00;26.27;;;12.93;;
74593;SDS011;63097;51.872;4.460;2023-03-09T08:30:26;31.40;;;13.50;;
74593;SDS011;63097;51.872;4.460;2023-03-09T08:32:52;27.42;;;12.90;;
74593;SDS011;63097;51.872;4.460;2023-03-09T08:35:18;26.15;;;13.65;;
74593;SDS011;63097;51.872;4.460;2023-03-09T08:37:46;27.10;;;13.23;;
74593;SDS011;63097;51.872;4.460;2023-03-09T08:40:11;26.50;;;12.73;;
74593;SDS011;63097;51.872;4.460;2023-03-09T08:42:37;29.85;;;12.77;;
74593;SDS011;63097;51.872;4.460;2023-03-09T08:45:03;28.73;;;13.85;;
74593;SDS011;63097;51.872;4.460;2023-03-09T08:47:30;28.80;;;13.38;;
74593;SDS011;63097;51.872;4.460;2023-03-09T08:49:55;29.83;;;13.90;;
74593;SDS011;63097;51.872;4.460;2023-03-09T08:52:21;28.08;;;13.00;;
74593;SDS011;63097;51.872;4.460;2023-03-09T08:54:46;28.05;;;13.02;;
74593;SDS011;63097;51.872;4.460;2023-03-09T08:57:12;23.73;;;13.25;;
74593;SDS011;63097;51.872;4.460;2023-03-09T08:59:37;31.10;;;13.45;;
74593;SDS011;63097;51.872;4.460;2023-03-09T09:02:03;25.52;;;12.40;;
74593;SDS011;63097;51.872;4.460;2023-03-09T09:04:29;26.92;;;13.43;;
74593;SDS011;63097;51.872;4.460;2023-03-09T09:06:54;28.33;;;14.00;;
74593;SDS011;63097;51.872;4.460;2023-03-09T09:09:20;27.98;;;13.57;;
74593;SDS011;63097;51.872;4.460;2023-03-09T09:11:45;28.35;;;13.60;;
74593;SDS011;63097;51.872;4.460;2023-03-09T09:14:11;26.92;;;13.73;;
74593;SDS011;63097;51.872;4.460;2023-03-09T09:16:36;27.30;;;13.75;;
74593;SDS011;63097;51.872;4.460;2023-03-09T09:19:02;28.90;;;13.98;;
74593;SDS011;63097;51.872;4.460;2023-03-09T09:21:27;24.33;;;12.77;;
74593;SDS011;63097;51.872;4.460;2023-03-09T09:23:52;25.58;;;13.85;;
74593;SDS011;63097;51.872;4.460;2023-03-09T09:26:17;26.98;;;14.13;;
74593;SDS011;63097;51.872;4.460;2023-03-09T09:28:43;26.95;;;13.90;;
74593;SDS011;63097;51.872;4.460;2023-03-09T09:31:10;29.23;;;13.65;;
74593;SDS011;63097;51.872;4.460;2023-03-09T09:33:37;32.20;;;13.85;;
74593;SDS011;63097;51.872;4.460;2023-03-09T09:36:04;29.73;;;14.30;;
74593;SDS011;63097;51.872;4.460;2023-03-09T09:38:31;29.08;;;13.90;;
74593;SDS011;63097;51.872;4.460;2023-03-09T09:40:58;30.23;;;14.07;;
74593;SDS011;63097;51.872;4.460;2023-03-09T09:43:27;31.30;;;14.68;;
74593;SDS011;63097;51.872;4.460;2023-03-09T09:45:55;28.85;;;14.15;;
74593;SDS011;63097;51.872;4.460;2023-03-09T09:48:23;25.30;;;12.85;;
74593;SDS011;63097;51.872;4.460;2023-03-09T09:50:55;31.70;;;14.70;;
74593;SDS011;63097;51.872;4.460;2023-03-09T09:56:36;28.30;;;14.05;;
74593;SDS011;63097;51.872;4.460;2023-03-09T09:59:23;30.15;;;13.50;;
74593;SDS011;63097;51.872;4.460;2023-03-09T10:04:36;28.90;;;13.70;;
74593;SDS011;63097;51.872;4.460;2023-03-09T10:07:24;34.05;;;15.50;;
74593;SDS011;63097;51.872;4.460;2023-03-09T10:09:54;24.77;;;13.82;;
74593;SDS011;63097;51.872;4.460;2023-03-09T10:12:35;31.15;;;14.82;;
74593;SDS011;63097;51.872;4.460;2023-03-09T10:15:02;33.58;;;14.60;;
74593;SDS011;63097;51.872;4.460;2023-03-09T10:22:49;28.02;;;14.07;;
74593;SDS011;63097;51.872;4.460;2023-03-09T10:25:19;29.50;;;14.93;;
74593;SDS011;63097;51.872;4.460;2023-03-09T10:30:29;27.38;;;14.43;;
74593;SDS011;63097;51.872;4.460;2023-03-09T10:38:34;27.15;;;14.13;;
74593;SDS011;63097;51.872;4.460;2023-03-09T10:41:02;33.08;;;15.27;;
74593;SDS011;63097;51.872;4.460;2023-03-09T10:43:29;29.10;;;14.02;;
74593;SDS011;63097;51.872;4.460;2023-03-09T10:46:15;31.95;;;15.85;;
74593;SDS011;63097;51.872;4.460;2023-03-09T10:48:48;31.67;;;15.65;;
74593;SDS011;63097;51.872;4.460;2023-03-09T10:51:23;30.38;;;15.20;;
74593;SDS011;63097;51.872;4.460;2023-03-09T10:53:52;37.30;;;15.27;;
74593;SDS011;63097;51.872;4.460;2023-03-09T10:58:47;33.83;;;14.32;;
74593;SDS011;63097;51.872;4.460;2023-03-09T11:01:31;35.38;;;15.07;;
74593;SDS011;63097;51.872;4.460;2023-03-09T11:03:59;36.38;;;15.20;;
74593;SDS011;63097;51.872;4.460;2023-03-09T11:06:27;31.50;;;15.25;;
74593;SDS011;63097;51.872;4.460;2023-03-09T11:11:40;35.55;;;15.40;;
74593;SDS011;63097;51.872;4.460;2023-03-09T11:14:20;33.50;;;15.00;;
74593;SDS011;63097;51.872;4.460;2023-03-09T11:16:57;34.90;;;15.40;;
74593;SDS011;63097;51.872;4.460;2023-03-09T11:19:24;32.83;;;15.40;;
74593;SDS011;63097;51.872;4.460;2023-03-09T11:21:50;37.08;;;15.85;;
74593;SDS011;63097;51.872;4.460;2023-03-09T11:24:42;35.17;;;15.50;;
74593;SDS011;63097;51.872;4.460;2023-03-09T11:27:23;37.67;;;15.73;;
74593;SDS011;63097;51.872;4.460;2023-03-09T11:29:55;34.05;;;15.57;;
74593;SDS011;63097;51.872;4.460;2023-03-09T11:32:24;34.95;;;15.75;;
74593;SDS011;63097;51.872;4.460;2023-03-09T11:34:49;36.50;;;16.00;;
74593;SDS011;63097;51.872;4.460;2023-03-09T11:40:01;29.55;;;14.85;;
74593;SDS011;63097;51.872;4.460;2023-03-09T11:43:00;34.92;;;15.85;;
74593;SDS011;63097;51.872;4.460;2023-03-09T11:47:59;32.17;;;14.40;;
74593;SDS011;63097;51.872;4.460;2023-03-09T11:53:35;37.33;;;15.77;;
74593;SDS011;63097;51.872;4.460;2023-03-09T11:56:11;35.70;;;15.23;;
74593;SDS011;63097;51.872;4.460;2023-03-09T11:58:41;33.58;;;15.13;;
74593;SDS011;63097;51.872;4.460;2023-03-09T12:04:01;36.92;;;15.13;;
74593;SDS011;63097;51.872;4.460;2023-03-09T12:08:57;34.08;;;14.32;;
74593;SDS011;63097;51.872;4.460;2023-03-09T12:11:27;35.28;;;15.20;;
74593;SDS011;63097;51.872;4.460;2023-03-09T12:14:00;31.13;;;14.48;;
74593;SDS011;63097;51.872;4.460;2023-03-09T12:16:37;31.02;;;13.43;;
74593;SDS011;63097;51.872;4.460;2023-03-09T12:21:38;29.13;;;13.38;;
74593;SDS011;63097;51.872;4.460;2023-03-09T12:26:55;33.55;;;14.10;;
74593;SDS011;63097;51.872;4.460;2023-03-09T12:29:23;32.25;;;15.65;;
74593;SDS011;63097;51.872;4.460;2023-03-09T12:32:15;35.45;;;14.85;;
74593;SDS011;63097;51.872;4.460;2023-03-09T12:34:51;37.17;;;15.35;;
74593;SDS011;63097;51.872;4.460;2023-03-09T12:39:59;30.33;;;14.13;;
74593;SDS011;63097;51.872;4.460;2023-03-09T12:42:36;31.05;;;13.95;;
74593;SDS011;63097;51.872;4.460;2023-03-09T12:45:22;27.70;;;13.63;;
74593;SDS011;63097;51.872;4.460;2023-03-09T13:00:57;32.10;;;15.27;;
74593;SDS011;63097;51.872;4.460;2023-03-09T13:03:24;29.27;;;13.25;;
74593;SDS011;63097;51.872;4.460;2023-03-09T13:05:53;32.40;;;15.15;;
74593;SDS011;63097;51.872;4.460;2023-03-09T13:08:21;30.35;;;13.90;;
74593;SDS011;63097;51.872;4.460;2023-03-09T13:10:47;30.45;;;14.35;;
74593;SDS011;63097;51.872;4.460;2023-03-09T13:13:33;35.40;;;14.32;;
74593;SDS011;63097;51.872;4.460;2023-03-09T13:24:24;36.83;;;15.30;;
74593;SDS011;63097;51.872;4.460;2023-03-09T13:26:56;36.38;;;15.93;;
74593;SDS011;63097;51.872;4.460;2023-03-09T13:29:43;33.42;;;13.98;;
74593;SDS011;63097;51.872;4.460;2023-03-09T13:35:02;30.95;;;11.80;;
74593;SDS011;63097;51.872;4.460;2023-03-09T13:37:38;38.80;;;15.15;;
74593;SDS011;63097;51.872;4.460;2023-03-09T13:40:06;36.53;;;15.82;;
74593;SDS011;63097;51.872;4.460;2023-03-09T13:42:52;42.10;;;17.58;;
74593;SDS011;63097;51.872;4.460;2023-03-09T13:45:25;41.83;;;17.33;;
74593;SDS011;63097;51.872;4.460;2023-03-09T13:47:54;40.72;;;15.80;;
74593;SDS011;63097;51.872;4.460;2023-03-09T13:50:23;39.97;;;16.10;;
74593;SDS011;63097;51.872;4.460;2023-03-09T13:55:39;32.72;;;14.45;;
74593;SDS011;63097;51.872;4.460;2023-03-09T13:58:07;31.52;;;12.75;;
74593;SDS011;63097;51.872;4.460;2023-03-09T14:00:38;29.05;;;11.85;;
74593;SDS011;63097;51.872;4.460;2023-03-09T14:03:03;26.83;;;12.10;;
74593;SDS011;63097;51.872;4.460;2023-03-09T14:05:29;24.23;;;12.25;;
74593;SDS011;63097;51.872;4.460;2023-03-09T14:07:55;24.33;;;11.18;;
74593;SDS011;63097;51.872;4.460;2023-03-09T14:10:30;21.70;;;11.02;;
74593;SDS011;63097;51.872;4.460;2023-03-09T14:12:58;21.52;;;9.55;;
74593;SDS011;63097;51.872;4.460;2023-03-09T14:15:27;20.17;;;9.60;;
74593;SDS011;63097;51.872;4.460;2023-03-09T14:17:53;17.52;;;8.85;;
74593;SDS011;63097;51.872;4.460;2023-03-09T14:20:19;20.38;;;8.90;;
74593;SDS011;63097;51.872;4.460;2023-03-09T14:22:45;18.08;;;8.68;;
74593;SDS011;63097;51.872;4.460;2023-03-09T14:25:21;18.75;;;9.20;;
74593;SDS011;63097;51.872;4.460;2023-03-09T14:27:55;19.95;;;9.23;;
74593;SDS011;63097;51.872;4.460;2023-03-09T14:30:29;21.52;;;10.65;;
74593;SDS011;63097;51.872;4.460;2023-03-09T14:33:01;19.77;;;9.63;;
74593;SDS011;63097;51.872;4.460;2023-03-09T14:35:30;18.58;;;9.40;;
74593;SDS011;63097;51.872;4.460;2023-03-09T14:38:00;21.95;;;10.13;;
74593;SDS011;63097;51.872;4.460;2023-03-09T14:40:30;25.63;;;10.98;;
74593;SDS011;63097;51.872;4.460;2023-03-09T14:46:13;19.92;;;10.00;;
74593;SDS011;63097;51.872;4.460;2023-03-09T14:48:40;21.13;;;9.60;;
74593;SDS011;63097;51.872;4.460;2023-03-09T14:51:08;17.95;;;8.77;;
74593;SDS011;63097;51.872;4.460;2023-03-09T14:53:47;18.20;;;8.13;;
74593;SDS011;63097;51.872;4.460;2023-03-09T14:56:14;18.35;;;8.55;;
74593;SDS011;63097;51.872;4.460;2023-03-09T14:58:40;19.00;;;9.00;;
74593;SDS011;63097;51.872;4.460;2023-03-09T15:01:05;20.50;;;8.88;;
74593;SDS011;63097;51.872;4.460;2023-03-09T15:03:30;16.30;;;8.23;;
74593;SDS011;63097;51.872;4.460;2023-03-09T15:05:56;19.65;;;8.60;;
74593;SDS011;63097;51.872;4.460;2023-03-09T15:08:21;15.55;;;8.32;;
74593;SDS011;63097;51.872;4.460;2023-03-09T15:10:46;18.10;;;8.55;;
74593;SDS011;63097;51.872;4.460;2023-03-09T15:13:12;17.95;;;8.18;;
74593;SDS011;63097;51.872;4.460;2023-03-09T15:15:37;15.88;;;7.22;;
74593;SDS011;63097;51.872;4.460;2023-03-09T15:18:02;18.17;;;9.00;;
74593;SDS011;63097;51.872;4.460;2023-03-09T15:20:27;20.50;;;8.70;;
74593;SDS011;63097;51.872;4.460;2023-03-09T15:22:53;20.50;;;9.10;;
74593;SDS011;63097;51.872;4.460;2023-03-09T15:25:18;18.88;;;8.90;;
74593;SDS011;63097;51.872;4.460;2023-03-09T15:27:44;21.13;;;10.35;;
74593;SDS011;63097;51.872;4.460;2023-03-09T15:30:14;21.83;;;9.93;;
74593;SDS011;63097;51.872;4.460;2023-03-09T15:32:41;19.50;;;9.40;;
74593;SDS011;63097;51.872;4.460;2023-03-09T15:35:07;23.13;;;10.38;;
74593;SDS011;63097;51.872;4.460;2023-03-09T15:37:36;24.58;;;10.30;;
74593;SDS011;63097;51.872;4.460;2023-03-09T15:40:02;22.48;;;9.65;;
74593;SDS011;63097;51.872;4.460;2023-03-09T15:42:27;23.00;;;10.50;;
74593;SDS011;63097;51.872;4.460;2023-03-09T15:44:53;15.80;;;7.80;;
74593;SDS011;63097;51.872;4.460;2023-03-09T15:47:18;22.17;;;10.38;;
74593;SDS011;63097;51.872;4.460;2023-03-09T15:49:43;19.50;;;9.55;;